AFL9734 UNNT-UIII
Flight info
| Callsign | AFL9734 |
|---|---|
| Flight time | 2h 0m |
| Altitude | 37000 |
| Route | OGATI1K OGATI A308 RISPA A822 LAPAK B151 RO A817 RUSAM G490 NH NH4A |
| Aircraft | A321/M-SDE3FGHIRWY/LB1 |
Departure
| Time | 2026-04-27 13:03 |
|---|---|
| Airport | Novosibirsk Tolmachevo Airport (UNNT) |
Arrival
| Time | 2026-04-27 15:03 |
|---|---|
| Airport | Irkutsk International Airport (UIII) |
| Time | Latitude | Longitude | Altitude | Speed | Heading |
|---|---|---|---|---|---|
| 2026-04-27 12:34 | 55.01156 | 82.67283 | 373 ft | 0 kts | 171° |
| 2026-04-27 12:48 | 55.01128 | 82.67295 | 372 ft | 9 kts | 151° |
| 2026-04-27 12:48 | 55.01120 | 82.67425 | 372 ft | 13 kts | 75° |
| 2026-04-27 12:48 | 55.01204 | 82.67547 | 372 ft | 19 kts | 31° |
| 2026-04-27 12:48 | 55.01316 | 82.67666 | 372 ft | 10 kts | 31° |
| 2026-04-27 12:49 | 55.01320 | 82.67670 | 372 ft | 1 kts | 31° |
| 2026-04-27 12:49 | 55.01324 | 82.67673 | 372 ft | 0 kts | 31° |
| 2026-04-27 12:49 | 55.01334 | 82.67684 | 372 ft | 7 kts | 31° |
| 2026-04-27 12:49 | 55.01418 | 82.67771 | 371 ft | 19 kts | 23° |
| 2026-04-27 12:50 | 55.01483 | 82.67692 | 370 ft | 10 kts | 268° |
| 2026-04-27 12:50 | 55.01481 | 82.67675 | 370 ft | 0 kts | 263° |
| 2026-04-27 12:52 | 55.01481 | 82.67669 | 370 ft | 3 kts | 263° |
| 2026-04-27 12:52 | 55.01458 | 82.67406 | 370 ft | 46 kts | 261° |
| 2026-04-27 12:52 | 55.01379 | 82.66542 | 374 ft | 98 kts | 261° |
| 2026-04-27 12:52 | 55.01260 | 82.65245 | 373 ft | 121 kts | 261° |
| 2026-04-27 12:53 | 55.01181 | 82.64348 | 373 ft | 0 kts | 261° |
| 2026-04-27 12:53 | 55.01176 | 82.64302 | 374 ft | 13 kts | 259° |
| 2026-04-27 12:53 | 55.01153 | 82.64081 | 375 ft | 24 kts | 258° |
| 2026-04-27 12:54 | 55.01075 | 82.63993 | 375 ft | 14 kts | 173° |
| 2026-04-27 12:54 | 55.01058 | 82.63998 | 375 ft | 0 kts | 171° |
| 2026-04-27 12:54 | 55.01015 | 82.64020 | 374 ft | 14 kts | 150° |
| 2026-04-27 12:54 | 55.00970 | 82.64244 | 373 ft | 25 kts | 103° |
| 2026-04-27 12:55 | 55.00929 | 82.64549 | 373 ft | 25 kts | 103° |
| 2026-04-27 12:55 | 55.00893 | 82.64838 | 373 ft | 23 kts | 102° |
| 2026-04-27 12:55 | 55.00876 | 82.65100 | 373 ft | 21 kts | 83° |
| 2026-04-27 12:55 | 55.00889 | 82.65344 | 373 ft | 19 kts | 83° |
| 2026-04-27 12:56 | 55.00907 | 82.65563 | 373 ft | 17 kts | 82° |
| 2026-04-27 12:56 | 55.00926 | 82.65758 | 373 ft | 16 kts | 81° |
| 2026-04-27 12:56 | 55.00943 | 82.65949 | 373 ft | 17 kts | 82° |
| 2026-04-27 12:56 | 55.00962 | 82.66169 | 373 ft | 9 kts | 81° |
| 2026-04-27 12:57 | 55.00979 | 82.66258 | 372 ft | 7 kts | 60° |
| 2026-04-27 12:57 | 55.01022 | 82.66375 | 372 ft | 16 kts | 69° |
| 2026-04-27 12:57 | 55.01062 | 82.66558 | 372 ft | 15 kts | 67° |
| 2026-04-27 12:57 | 55.01133 | 82.66655 | 372 ft | 16 kts | 358° |
| 2026-04-27 12:58 | 55.01252 | 82.66624 | 372 ft | 1 kts | 352° |
| 2026-04-27 12:58 | 55.01254 | 82.66623 | 372 ft | 0 kts | 352° |
| 2026-04-27 13:01 | 55.01259 | 82.66622 | 372 ft | 4 kts | 352° |
| 2026-04-27 13:02 | 55.01338 | 82.66598 | 373 ft | 14 kts | 338° |
| 2026-04-27 13:02 | 55.01368 | 82.66433 | 374 ft | 19 kts | 263° |
| 2026-04-27 13:02 | 55.01324 | 82.65929 | 373 ft | 79 kts | 261° |
| 2026-04-27 13:02 | 55.01202 | 82.64594 | 373 ft | 144 kts | 261° |
| 2026-04-27 13:03 | 55.01023 | 82.62571 | 581 ft | 179 kts | 260° |
| 2026-04-27 13:03 | 55.00813 | 82.60435 | 1338 ft | 178 kts | 263° |
| 2026-04-27 13:03 | 55.00620 | 82.58311 | 2116 ft | 178 kts | 263° |
| 2026-04-27 13:03 | 55.00431 | 82.56187 | 2447 ft | 180 kts | 263° |
| 2026-04-27 13:04 | 55.00265 | 82.53967 | 2581 ft | 189 kts | 272° |
| 2026-04-27 13:04 | 55.00737 | 82.51837 | 2719 ft | 197 kts | 312° |
| 2026-04-27 13:04 | 55.01949 | 82.50725 | 2830 ft | 212 kts | 353° |
| 2026-04-27 13:04 | 55.03467 | 82.51059 | 2925 ft | 226 kts | 11° |
| 2026-04-27 13:05 | 55.05042 | 82.51509 | 3005 ft | 230 kts | 360° |
| 2026-04-27 13:05 | 55.06635 | 82.51545 | 3011 ft | 233 kts | 356° |
| 2026-04-27 13:05 | 55.08358 | 82.51459 | 3009 ft | 255 kts | 355° |
| 2026-04-27 13:05 | 55.10090 | 82.51391 | 3011 ft | 252 kts | 357° |
| 2026-04-27 13:06 | 55.11905 | 82.52073 | 3016 ft | 287 kts | 27° |
| 2026-04-27 13:06 | 55.13409 | 82.54581 | 3007 ft | 317 kts | 58° |
| 2026-04-27 13:06 | 55.14183 | 82.58225 | 3010 ft | 319 kts | 77° |
| 2026-04-27 13:06 | 55.14458 | 82.61940 | 3007 ft | 300 kts | 85° |
| 2026-04-27 13:07 | 55.14425 | 82.65459 | 2999 ft | 281 kts | 105° |
| 2026-04-27 13:07 | 55.13566 | 82.68351 | 3007 ft | 260 kts | 133° |
| 2026-04-27 13:07 | 55.12220 | 82.70254 | 3010 ft | 244 kts | 157° |
| 2026-04-27 13:07 | 55.10590 | 82.70891 | 3502 ft | 239 kts | 188° |
| 2026-04-27 13:08 | 55.08952 | 82.70700 | 4484 ft | 244 kts | 180° |
| 2026-04-27 13:08 | 55.07194 | 82.71329 | 4953 ft | 269 kts | 157° |
| 2026-04-27 13:08 | 55.05704 | 82.73337 | 5416 ft | 278 kts | 126° |
| 2026-04-27 13:08 | 55.04947 | 82.76429 | 5916 ft | 281 kts | 100° |
| 2026-04-27 13:09 | 55.04611 | 82.79797 | 6242 ft | 283 kts | 98° |
| 2026-04-27 13:09 | 55.04307 | 82.83184 | 6588 ft | 284 kts | 98° |
| 2026-04-27 13:09 | 55.04007 | 82.86602 | 7091 ft | 286 kts | 98° |
| 2026-04-27 13:09 | 55.03701 | 82.90030 | 7679 ft | 288 kts | 98° |
| 2026-04-27 13:10 | 55.03386 | 82.93496 | 8253 ft | 291 kts | 99° |
| 2026-04-27 13:10 | 55.03062 | 82.97003 | 8825 ft | 294 kts | 99° |
| 2026-04-27 13:10 | 55.02731 | 83.00530 | 9380 ft | 297 kts | 99° |
| 2026-04-27 13:10 | 55.02392 | 83.04094 | 9928 ft | 300 kts | 99° |
| 2026-04-27 13:11 | 55.02046 | 83.07711 | 10374 ft | 307 kts | 99° |
| 2026-04-27 13:11 | 55.01685 | 83.11480 | 10489 ft | 324 kts | 99° |
| 2026-04-27 13:11 | 55.01302 | 83.15451 | 10619 ft | 340 kts | 99° |
| 2026-04-27 13:11 | 55.00902 | 83.19608 | 10748 ft | 355 kts | 99° |
| 2026-04-27 13:12 | 55.00485 | 83.23938 | 10874 ft | 370 kts | 100° |
| 2026-04-27 13:12 | 55.00049 | 83.28432 | 10998 ft | 384 kts | 100° |
| 2026-04-27 13:12 | 54.99594 | 83.33109 | 11130 ft | 397 kts | 100° |
| 2026-04-27 13:12 | 54.99124 | 83.37921 | 11258 ft | 408 kts | 100° |
| 2026-04-27 13:13 | 54.98644 | 83.42813 | 11550 ft | 414 kts | 100° |
| 2026-04-27 13:13 | 54.98155 | 83.47779 | 11896 ft | 417 kts | 100° |
| 2026-04-27 13:13 | 54.97663 | 83.52773 | 12230 ft | 421 kts | 100° |
| 2026-04-27 13:13 | 54.97164 | 83.57810 | 12568 ft | 424 kts | 101° |
| 2026-04-27 13:14 | 54.96659 | 83.62900 | 12878 ft | 427 kts | 101° |
| 2026-04-27 13:14 | 54.96145 | 83.68015 | 13170 ft | 431 kts | 101° |
| 2026-04-27 13:14 | 54.95621 | 83.73166 | 13491 ft | 434 kts | 101° |
| 2026-04-27 13:14 | 54.95091 | 83.78328 | 13788 ft | 437 kts | 101° |
| 2026-04-27 13:15 | 54.94554 | 83.83540 | 14074 ft | 440 kts | 101° |
| 2026-04-27 13:15 | 54.94015 | 83.88794 | 14350 ft | 442 kts | 101° |
| 2026-04-27 13:15 | 54.93472 | 83.94074 | 14637 ft | 444 kts | 102° |
| 2026-04-27 13:15 | 54.92929 | 83.99343 | 14925 ft | 446 kts | 102° |
| 2026-04-27 13:16 | 54.92379 | 84.04669 | 15218 ft | 448 kts | 102° |
| 2026-04-27 13:16 | 54.91823 | 84.10038 | 15641 ft | 451 kts | 102° |
| 2026-04-27 13:16 | 54.91263 | 84.15410 | 16131 ft | 453 kts | 102° |
| 2026-04-27 13:16 | 54.90698 | 84.20809 | 16598 ft | 456 kts | 102° |
| 2026-04-27 13:17 | 54.90126 | 84.26257 | 17046 ft | 459 kts | 103° |
| 2026-04-27 13:17 | 54.89549 | 84.31712 | 17484 ft | 462 kts | 103° |
| 2026-04-27 13:17 | 54.88962 | 84.37225 | 17911 ft | 465 kts | 103° |
| 2026-04-27 13:17 | 54.88366 | 84.42785 | 18326 ft | 468 kts | 103° |
| 2026-04-27 13:18 | 54.87764 | 84.48368 | 18682 ft | 471 kts | 104° |
| 2026-04-27 13:18 | 54.87158 | 84.53971 | 19028 ft | 474 kts | 104° |
| 2026-04-27 13:18 | 54.86546 | 84.59600 | 19375 ft | 477 kts | 104° |
| 2026-04-27 13:18 | 54.86129 | 84.63419 | 19586 ft | 478 kts | 104° |
| 2026-04-27 13:19 | 54.85532 | 84.71037 | 20029 ft | 484 kts | 98° |
| 2026-04-27 13:19 | 54.85231 | 84.76874 | 20356 ft | 486 kts | 98° |
| 2026-04-27 13:19 | 54.85025 | 84.80808 | 20574 ft | 488 kts | 99° |
| 2026-04-27 13:19 | 54.84715 | 84.86692 | 20895 ft | 490 kts | 99° |
| 2026-04-27 13:20 | 54.84401 | 84.92608 | 21199 ft | 493 kts | 99° |
| 2026-04-27 13:20 | 54.84085 | 84.98537 | 21503 ft | 495 kts | 99° |
| 2026-04-27 13:20 | 54.83766 | 85.04496 | 21807 ft | 497 kts | 99° |
| 2026-04-27 13:20 | 54.83440 | 85.10487 | 22090 ft | 499 kts | 99° |
| 2026-04-27 13:21 | 54.83111 | 85.16490 | 22378 ft | 502 kts | 99° |
| 2026-04-27 13:21 | 54.82846 | 85.22542 | 22642 ft | 506 kts | 95° |
| 2026-04-27 13:21 | 54.83011 | 85.28668 | 22888 ft | 513 kts | 86° |
| 2026-04-27 13:21 | 54.83687 | 85.34736 | 23101 ft | 518 kts | 77° |
| 2026-04-27 13:22 | 54.84865 | 85.40686 | 23332 ft | 522 kts | 70° |
| 2026-04-27 13:22 | 54.86183 | 85.46595 | 23544 ft | 523 kts | 71° |
| 2026-04-27 13:22 | 54.87467 | 85.52414 | 23830 ft | 523 kts | 71° |
| 2026-04-27 13:22 | 54.88768 | 85.58354 | 24071 ft | 523 kts | 71° |
| 2026-04-27 13:23 | 54.90058 | 85.64284 | 24297 ft | 523 kts | 71° |
| 2026-04-27 13:23 | 54.91338 | 85.70195 | 24520 ft | 523 kts | 71° |
| 2026-04-27 13:23 | 54.92607 | 85.76083 | 24742 ft | 523 kts | 71° |
| 2026-04-27 13:23 | 54.93885 | 85.82039 | 24964 ft | 523 kts | 71° |
| 2026-04-27 13:24 | 54.95157 | 85.87975 | 25185 ft | 523 kts | 72° |
| 2026-04-27 13:24 | 54.96426 | 85.93905 | 25415 ft | 524 kts | 72° |
| 2026-04-27 13:24 | 54.97689 | 85.99854 | 25635 ft | 523 kts | 72° |
| 2026-04-27 13:24 | 54.98870 | 86.05864 | 25844 ft | 523 kts | 75° |
| 2026-04-27 13:25 | 54.99940 | 86.11887 | 26062 ft | 522 kts | 76° |
| 2026-04-27 13:25 | 55.00937 | 86.17959 | 26273 ft | 522 kts | 77° |
| 2026-04-27 13:25 | 55.01899 | 86.24062 | 26485 ft | 521 kts | 78° |
| 2026-04-27 13:25 | 55.02857 | 86.30147 | 26705 ft | 522 kts | 78° |
| 2026-04-27 13:26 | 55.03835 | 86.36249 | 26910 ft | 522 kts | 77° |
| 2026-04-27 13:26 | 55.04828 | 86.42314 | 27126 ft | 522 kts | 77° |
| 2026-04-27 13:26 | 55.05839 | 86.48401 | 27337 ft | 522 kts | 77° |
| 2026-04-27 13:26 | 55.06854 | 86.54465 | 27551 ft | 522 kts | 77° |
| 2026-04-27 13:27 | 55.07868 | 86.60542 | 27756 ft | 522 kts | 77° |
| 2026-04-27 13:27 | 55.08875 | 86.66592 | 27956 ft | 521 kts | 77° |
| 2026-04-27 13:27 | 55.09883 | 86.72712 | 28166 ft | 521 kts | 77° |
| 2026-04-27 13:27 | 55.10873 | 86.78779 | 28371 ft | 521 kts | 77° |
| 2026-04-27 13:28 | 55.11863 | 86.84878 | 28596 ft | 520 kts | 77° |
| 2026-04-27 13:28 | 55.12845 | 86.90959 | 28807 ft | 520 kts | 78° |
| 2026-04-27 13:28 | 55.13821 | 86.97013 | 29000 ft | 520 kts | 78° |
| 2026-04-27 13:28 | 55.14806 | 87.03114 | 29191 ft | 520 kts | 78° |
| 2026-04-27 13:29 | 55.15748 | 87.08952 | 29379 ft | 520 kts | 78° |
| 2026-04-27 13:29 | 55.16729 | 87.15039 | 29597 ft | 519 kts | 78° |
| 2026-04-27 13:29 | 55.17700 | 87.21112 | 29794 ft | 519 kts | 78° |
| 2026-04-27 13:29 | 55.18660 | 87.27177 | 29989 ft | 518 kts | 78° |
| 2026-04-27 13:30 | 55.19610 | 87.33220 | 30197 ft | 518 kts | 78° |
| 2026-04-27 13:30 | 55.20565 | 87.39315 | 30366 ft | 517 kts | 78° |
| 2026-04-27 13:30 | 55.21518 | 87.45402 | 30541 ft | 516 kts | 78° |
| 2026-04-27 13:30 | 55.22468 | 87.51489 | 30686 ft | 516 kts | 78° |
| 2026-04-27 13:31 | 55.23410 | 87.57557 | 30854 ft | 516 kts | 78° |
| 2026-04-27 13:31 | 55.24351 | 87.63626 | 31018 ft | 515 kts | 78° |
| 2026-04-27 13:31 | 55.25288 | 87.69669 | 31174 ft | 515 kts | 78° |
| 2026-04-27 13:31 | 55.26211 | 87.75633 | 31338 ft | 515 kts | 78° |
| 2026-04-27 13:32 | 55.27157 | 87.81767 | 31487 ft | 515 kts | 78° |
| 2026-04-27 13:32 | 55.28090 | 87.87858 | 31639 ft | 514 kts | 78° |
| 2026-04-27 13:32 | 55.29000 | 87.93835 | 31794 ft | 514 kts | 78° |
| 2026-04-27 13:32 | 55.29929 | 87.99959 | 31944 ft | 514 kts | 78° |
| 2026-04-27 13:33 | 55.30841 | 88.06030 | 32087 ft | 513 kts | 78° |
| 2026-04-27 13:33 | 55.31746 | 88.12052 | 32229 ft | 512 kts | 78° |
| 2026-04-27 13:33 | 55.32655 | 88.18111 | 32374 ft | 513 kts | 78° |
| 2026-04-27 13:33 | 55.33563 | 88.24169 | 32515 ft | 513 kts | 78° |
| 2026-04-27 13:34 | 55.34468 | 88.30233 | 32655 ft | 512 kts | 78° |
| 2026-04-27 13:34 | 55.35367 | 88.36293 | 32793 ft | 512 kts | 78° |
| 2026-04-27 13:34 | 55.36260 | 88.42341 | 32927 ft | 512 kts | 78° |
| 2026-04-27 13:34 | 55.37145 | 88.48328 | 33054 ft | 512 kts | 78° |
| 2026-04-27 13:35 | 55.38050 | 88.54470 | 33193 ft | 511 kts | 78° |
| 2026-04-27 13:35 | 55.38923 | 88.60402 | 33326 ft | 511 kts | 78° |
| 2026-04-27 13:35 | 55.39829 | 88.66581 | 33469 ft | 511 kts | 78° |
| 2026-04-27 13:35 | 55.40708 | 88.72622 | 33585 ft | 511 kts | 78° |
| 2026-04-27 13:36 | 55.41573 | 88.78680 | 33741 ft | 510 kts | 79° |
| 2026-04-27 13:36 | 55.42416 | 88.84643 | 33870 ft | 510 kts | 79° |
| 2026-04-27 13:36 | 55.43186 | 88.90813 | 34007 ft | 507 kts | 85° |
| 2026-04-27 13:36 | 55.43561 | 88.96971 | 34138 ft | 503 kts | 89° |
| 2026-04-27 13:37 | 55.43840 | 89.03033 | 34259 ft | 503 kts | 89° |
| 2026-04-27 13:37 | 55.44119 | 89.09255 | 34371 ft | 502 kts | 89° |
| 2026-04-27 13:37 | 55.44389 | 89.15285 | 34481 ft | 501 kts | 89° |
| 2026-04-27 13:37 | 55.44664 | 89.21506 | 34600 ft | 501 kts | 89° |
| 2026-04-27 13:38 | 55.44934 | 89.27561 | 34714 ft | 500 kts | 89° |
| 2026-04-27 13:38 | 55.45212 | 89.33702 | 34834 ft | 499 kts | 89° |
| 2026-04-27 13:38 | 55.45484 | 89.39798 | 34935 ft | 498 kts | 89° |
| 2026-04-27 13:38 | 55.45743 | 89.45773 | 35095 ft | 496 kts | 89° |
| 2026-04-27 13:39 | 55.46264 | 89.57927 | 35170 ft | 498 kts | 89° |
| 2026-04-27 13:39 | 55.46761 | 89.70135 | 35168 ft | 501 kts | 89° |
| 2026-04-27 13:40 | 55.47264 | 89.82414 | 35167 ft | 505 kts | 89° |
| 2026-04-27 13:40 | 55.47757 | 89.94802 | 35166 ft | 507 kts | 89° |
| 2026-04-27 13:41 | 55.48229 | 90.07236 | 35173 ft | 508 kts | 89° |
| 2026-04-27 13:41 | 55.48679 | 90.19357 | 35181 ft | 505 kts | 89° |
| 2026-04-27 13:42 | 55.49126 | 90.31726 | 35177 ft | 504 kts | 89° |
| 2026-04-27 13:42 | 55.49556 | 90.44064 | 35175 ft | 503 kts | 89° |
| 2026-04-27 13:43 | 55.49980 | 90.56409 | 35173 ft | 503 kts | 89° |
| 2026-04-27 13:43 | 55.50397 | 90.68669 | 35168 ft | 502 kts | 89° |
| 2026-04-27 13:44 | 55.50804 | 90.81021 | 35165 ft | 502 kts | 90° |
| 2026-04-27 13:44 | 55.51188 | 90.93300 | 35162 ft | 502 kts | 90° |
| 2026-04-27 13:45 | 55.51552 | 91.05607 | 35162 ft | 502 kts | 90° |
| 2026-04-27 13:45 | 55.51401 | 91.17844 | 35167 ft | 497 kts | 99° |
| 2026-04-27 13:46 | 55.50743 | 91.29984 | 35162 ft | 497 kts | 99° |
| 2026-04-27 13:46 | 55.50104 | 91.42144 | 35162 ft | 497 kts | 99° |
| 2026-04-27 13:47 | 55.49442 | 91.54247 | 35162 ft | 497 kts | 99° |
| 2026-04-27 13:47 | 55.48749 | 91.66375 | 35169 ft | 496 kts | 99° |
| 2026-04-27 13:48 | 55.48048 | 91.78490 | 35167 ft | 496 kts | 99° |
| 2026-04-27 13:48 | 55.47355 | 91.90543 | 35164 ft | 496 kts | 99° |
| 2026-04-27 13:49 | 55.46661 | 92.02464 | 35172 ft | 495 kts | 99° |
| 2026-04-27 13:49 | 55.45945 | 92.14498 | 35177 ft | 494 kts | 99° |
| 2026-04-27 13:50 | 55.45200 | 92.26525 | 35172 ft | 493 kts | 99° |
| 2026-04-27 13:50 | 55.44454 | 92.38551 | 35167 ft | 493 kts | 99° |
| 2026-04-27 13:51 | 55.43695 | 92.50506 | 35166 ft | 492 kts | 100° |
| 2026-04-27 13:51 | 55.42934 | 92.62488 | 35166 ft | 492 kts | 100° |
| 2026-04-27 13:52 | 55.42172 | 92.74449 | 35162 ft | 491 kts | 100° |
| 2026-04-27 13:52 | 55.41397 | 92.86397 | 35160 ft | 491 kts | 100° |
| 2026-04-27 13:53 | 55.40222 | 93.04260 | 35156 ft | 490 kts | 101° |
| 2026-04-27 13:54 | 55.39407 | 93.16192 | 35152 ft | 490 kts | 101° |
| 2026-04-27 13:54 | 55.38582 | 93.28109 | 35146 ft | 490 kts | 101° |
| 2026-04-27 13:55 | 55.37763 | 93.40017 | 35140 ft | 491 kts | 101° |
| 2026-04-27 13:55 | 55.36927 | 93.51922 | 35134 ft | 490 kts | 101° |
| 2026-04-27 13:56 | 55.36075 | 93.63815 | 35129 ft | 491 kts | 101° |
| 2026-04-27 13:56 | 55.35221 | 93.75639 | 35128 ft | 491 kts | 101° |
| 2026-04-27 13:57 | 55.34342 | 93.87514 | 35127 ft | 491 kts | 101° |
| 2026-04-27 13:57 | 55.33457 | 93.99417 | 35128 ft | 491 kts | 101° |
| 2026-04-27 13:58 | 55.32570 | 94.11297 | 35129 ft | 490 kts | 101° |
| 2026-04-27 13:58 | 55.31655 | 94.23162 | 35128 ft | 490 kts | 101° |
| 2026-04-27 13:59 | 55.30729 | 94.34993 | 35130 ft | 489 kts | 101° |
| 2026-04-27 13:59 | 55.29808 | 94.46835 | 35124 ft | 489 kts | 101° |
| 2026-04-27 14:00 | 55.28875 | 94.58661 | 35123 ft | 489 kts | 101° |
| 2026-04-27 14:00 | 55.27927 | 94.70474 | 35114 ft | 489 kts | 102° |
| 2026-04-27 14:01 | 55.26960 | 94.82288 | 35111 ft | 489 kts | 102° |
| 2026-04-27 14:01 | 55.26156 | 94.92106 | 35108 ft | 490 kts | 101° |
| 2026-04-27 14:02 | 55.25311 | 95.03964 | 35104 ft | 491 kts | 100° |
| 2026-04-27 14:02 | 55.24506 | 95.15852 | 35114 ft | 491 kts | 100° |
| 2026-04-27 14:03 | 55.23675 | 95.27733 | 35104 ft | 491 kts | 100° |
| 2026-04-27 14:03 | 55.22818 | 95.39594 | 35101 ft | 491 kts | 100° |
| 2026-04-27 14:04 | 55.21940 | 95.51440 | 35102 ft | 491 kts | 100° |
| 2026-04-27 14:04 | 55.21042 | 95.63273 | 35102 ft | 490 kts | 100° |
| 2026-04-27 14:05 | 55.20150 | 95.75029 | 35101 ft | 490 kts | 100° |
| 2026-04-27 14:05 | 55.19242 | 95.86924 | 35099 ft | 489 kts | 100° |
| 2026-04-27 14:06 | 55.18333 | 95.98702 | 35104 ft | 489 kts | 100° |
| 2026-04-27 14:06 | 55.17407 | 96.10417 | 35101 ft | 488 kts | 100° |
| 2026-04-27 14:07 | 55.16463 | 96.22169 | 35103 ft | 487 kts | 100° |
| 2026-04-27 14:07 | 55.15515 | 96.33901 | 35100 ft | 487 kts | 100° |
| 2026-04-27 14:08 | 55.14555 | 96.45599 | 35099 ft | 486 kts | 100° |
| 2026-04-27 14:08 | 55.13587 | 96.57294 | 35095 ft | 486 kts | 100° |
| 2026-04-27 14:09 | 55.12607 | 96.68964 | 35097 ft | 485 kts | 100° |
| 2026-04-27 14:09 | 55.11611 | 96.80609 | 35095 ft | 485 kts | 100° |
| 2026-04-27 14:10 | 55.10609 | 96.92259 | 35093 ft | 484 kts | 100° |
| 2026-04-27 14:10 | 55.09603 | 97.03900 | 35098 ft | 484 kts | 100° |
| 2026-04-27 14:11 | 55.08574 | 97.15500 | 35098 ft | 483 kts | 101° |
| 2026-04-27 14:11 | 55.07476 | 97.27072 | 35099 ft | 483 kts | 101° |
| 2026-04-27 14:12 | 55.06355 | 97.38612 | 35103 ft | 482 kts | 101° |
| 2026-04-27 14:12 | 55.05240 | 97.50146 | 35102 ft | 482 kts | 101° |
| 2026-04-27 14:13 | 55.04115 | 97.61666 | 35097 ft | 482 kts | 101° |
| 2026-04-27 14:13 | 55.02973 | 97.73177 | 35097 ft | 482 kts | 101° |
| 2026-04-27 14:14 | 55.01828 | 97.84668 | 35099 ft | 481 kts | 101° |
| 2026-04-27 14:14 | 55.00673 | 97.96151 | 35099 ft | 481 kts | 101° |
| 2026-04-27 14:15 | 54.99513 | 98.07577 | 35099 ft | 481 kts | 101° |
| 2026-04-27 14:15 | 54.98326 | 98.19119 | 35096 ft | 481 kts | 101° |
| 2026-04-27 14:16 | 54.97153 | 98.30486 | 35097 ft | 480 kts | 101° |
| 2026-04-27 14:16 | 54.95956 | 98.41909 | 35095 ft | 480 kts | 101° |
| 2026-04-27 14:17 | 54.94749 | 98.53334 | 35091 ft | 479 kts | 101° |
| 2026-04-27 14:17 | 54.93532 | 98.64723 | 35088 ft | 479 kts | 101° |
| 2026-04-27 14:18 | 54.92298 | 98.76178 | 35091 ft | 478 kts | 101° |
| 2026-04-27 14:18 | 54.91072 | 98.87463 | 35090 ft | 478 kts | 101° |
| 2026-04-27 14:19 | 54.89825 | 98.98804 | 35093 ft | 477 kts | 101° |
| 2026-04-27 14:19 | 54.88556 | 99.10114 | 35093 ft | 477 kts | 101° |
| 2026-04-27 14:20 | 54.87199 | 99.21400 | 35097 ft | 477 kts | 102° |
| 2026-04-27 14:20 | 54.85805 | 99.32639 | 35099 ft | 476 kts | 101° |
| 2026-04-27 14:21 | 54.84412 | 99.43862 | 35099 ft | 476 kts | 101° |
| 2026-04-27 14:21 | 54.83016 | 99.55083 | 35100 ft | 475 kts | 101° |
| 2026-04-27 14:22 | 54.81621 | 99.66286 | 35103 ft | 475 kts | 101° |
| 2026-04-27 14:22 | 54.80213 | 99.77466 | 35106 ft | 475 kts | 101° |
| 2026-04-27 14:23 | 54.78785 | 99.88651 | 35105 ft | 474 kts | 101° |
| 2026-04-27 14:23 | 54.77355 | 99.99796 | 35112 ft | 474 kts | 101° |
| 2026-04-27 14:24 | 54.75915 | 100.10932 | 35108 ft | 474 kts | 101° |
| 2026-04-27 14:24 | 54.74486 | 100.21960 | 35109 ft | 473 kts | 101° |
| 2026-04-27 14:25 | 54.73021 | 100.33122 | 35106 ft | 473 kts | 101° |
| 2026-04-27 14:25 | 54.71550 | 100.44196 | 35113 ft | 473 kts | 101° |
| 2026-04-27 14:26 | 54.70075 | 100.55267 | 35112 ft | 473 kts | 101° |
| 2026-04-27 14:26 | 54.68588 | 100.66333 | 35114 ft | 473 kts | 101° |
| 2026-04-27 14:27 | 54.67095 | 100.77381 | 35116 ft | 472 kts | 101° |
| 2026-04-27 14:27 | 54.65592 | 100.88432 | 35118 ft | 472 kts | 101° |
| 2026-04-27 14:28 | 54.64085 | 100.99478 | 35124 ft | 472 kts | 101° |
| 2026-04-27 14:28 | 54.62561 | 101.10486 | 35127 ft | 471 kts | 101° |
| 2026-04-27 14:29 | 54.61031 | 101.21458 | 35136 ft | 471 kts | 101° |
| 2026-04-27 14:29 | 54.59491 | 101.32439 | 35141 ft | 470 kts | 101° |
| 2026-04-27 14:30 | 54.57940 | 101.43396 | 35145 ft | 470 kts | 101° |
| 2026-04-27 14:30 | 54.56377 | 101.54343 | 35152 ft | 470 kts | 101° |
| 2026-04-27 14:31 | 54.54812 | 101.65256 | 35152 ft | 469 kts | 101° |
| 2026-04-27 14:31 | 54.53239 | 101.76161 | 35153 ft | 469 kts | 101° |
| 2026-04-27 14:32 | 54.51662 | 101.87029 | 35158 ft | 469 kts | 100° |
| 2026-04-27 14:32 | 54.50072 | 101.97919 | 35157 ft | 469 kts | 100° |
| 2026-04-27 14:33 | 54.48463 | 102.08796 | 35166 ft | 469 kts | 100° |
| 2026-04-27 14:33 | 54.46853 | 102.19642 | 35163 ft | 469 kts | 100° |
| 2026-04-27 14:34 | 54.45230 | 102.30485 | 35167 ft | 468 kts | 100° |
| 2026-04-27 14:34 | 54.43609 | 102.41315 | 35171 ft | 468 kts | 100° |
| 2026-04-27 14:35 | 54.41975 | 102.52134 | 35178 ft | 468 kts | 100° |
| 2026-04-27 14:35 | 54.40329 | 102.62955 | 35186 ft | 468 kts | 100° |
| 2026-04-27 14:36 | 54.38665 | 102.73747 | 35190 ft | 468 kts | 100° |
| 2026-04-27 14:36 | 54.37006 | 102.84459 | 35192 ft | 467 kts | 100° |
| 2026-04-27 14:37 | 54.35363 | 102.95235 | 35200 ft | 467 kts | 99° |
| 2026-04-27 14:37 | 54.33717 | 103.06007 | 35209 ft | 467 kts | 99° |
| 2026-04-27 14:38 | 54.31215 | 103.16312 | 35212 ft | 477 kts | 120° |
| 2026-04-27 14:38 | 54.29150 | 103.20799 | 35195 ft | 482 kts | 131° |
| 2026-04-27 14:38 | 54.26644 | 103.24555 | 35132 ft | 487 kts | 142° |
| 2026-04-27 14:38 | 54.23707 | 103.27529 | 34888 ft | 489 kts | 154° |
| 2026-04-27 14:39 | 54.20574 | 103.29798 | 34642 ft | 491 kts | 156° |
| 2026-04-27 14:39 | 54.17417 | 103.32048 | 34398 ft | 492 kts | 156° |
| 2026-04-27 14:39 | 54.14260 | 103.34300 | 34158 ft | 493 kts | 155° |
| 2026-04-27 14:39 | 54.11080 | 103.36571 | 33879 ft | 493 kts | 155° |
| 2026-04-27 14:40 | 54.07922 | 103.38823 | 33608 ft | 493 kts | 156° |
| 2026-04-27 14:40 | 54.04756 | 103.41070 | 33337 ft | 493 kts | 156° |
| 2026-04-27 14:40 | 54.01595 | 103.43308 | 33070 ft | 492 kts | 156° |
| 2026-04-27 14:40 | 53.98437 | 103.45543 | 32800 ft | 491 kts | 156° |
| 2026-04-27 14:41 | 53.95280 | 103.47778 | 32532 ft | 491 kts | 156° |
| 2026-04-27 14:41 | 53.92126 | 103.50004 | 32269 ft | 491 kts | 156° |
| 2026-04-27 14:41 | 53.88977 | 103.52223 | 32012 ft | 490 kts | 156° |
| 2026-04-27 14:41 | 53.85829 | 103.54439 | 31756 ft | 490 kts | 156° |
| 2026-04-27 14:42 | 53.82684 | 103.56647 | 31499 ft | 489 kts | 156° |
| 2026-04-27 14:42 | 53.79540 | 103.58850 | 31248 ft | 488 kts | 156° |
| 2026-04-27 14:42 | 53.76418 | 103.61032 | 30995 ft | 487 kts | 156° |
| 2026-04-27 14:42 | 53.73274 | 103.63224 | 30736 ft | 487 kts | 156° |
| 2026-04-27 14:43 | 53.70149 | 103.65399 | 30510 ft | 486 kts | 156° |
| 2026-04-27 14:43 | 53.67026 | 103.67572 | 30260 ft | 485 kts | 156° |
| 2026-04-27 14:43 | 53.63907 | 103.69743 | 29970 ft | 484 kts | 156° |
| 2026-04-27 14:43 | 53.60796 | 103.71908 | 29680 ft | 484 kts | 156° |
| 2026-04-27 14:44 | 53.57679 | 103.74074 | 29395 ft | 484 kts | 156° |
| 2026-04-27 14:44 | 53.54567 | 103.76233 | 29112 ft | 484 kts | 156° |
| 2026-04-27 14:44 | 53.51459 | 103.78381 | 28823 ft | 484 kts | 156° |
| 2026-04-27 14:44 | 53.48341 | 103.80529 | 28560 ft | 484 kts | 157° |
| 2026-04-27 14:45 | 53.45213 | 103.82684 | 28285 ft | 484 kts | 157° |
| 2026-04-27 14:45 | 53.42144 | 103.84791 | 27676 ft | 483 kts | 157° |
| 2026-04-27 14:45 | 53.39022 | 103.86947 | 26615 ft | 486 kts | 155° |
| 2026-04-27 14:45 | 53.36013 | 103.89530 | 25643 ft | 486 kts | 149° |
| 2026-04-27 14:46 | 53.33068 | 103.92318 | 24725 ft | 486 kts | 150° |
| 2026-04-27 14:46 | 53.30121 | 103.95089 | 23791 ft | 486 kts | 150° |
| 2026-04-27 14:46 | 53.27174 | 103.97839 | 22925 ft | 482 kts | 150° |
| 2026-04-27 14:46 | 53.24265 | 104.00545 | 22251 ft | 475 kts | 150° |
| 2026-04-27 14:47 | 53.21400 | 104.03206 | 21596 ft | 468 kts | 150° |
| 2026-04-27 14:47 | 53.18574 | 104.05831 | 20951 ft | 462 kts | 150° |
| 2026-04-27 14:47 | 53.15785 | 104.08425 | 20311 ft | 456 kts | 150° |
| 2026-04-27 14:47 | 53.13028 | 104.10984 | 19689 ft | 450 kts | 150° |
| 2026-04-27 14:48 | 53.11189 | 104.12693 | 19275 ft | 447 kts | 150° |
| 2026-04-27 14:48 | 53.05812 | 104.17647 | 18039 ft | 436 kts | 151° |
| 2026-04-27 14:48 | 53.03175 | 104.20040 | 17465 ft | 429 kts | 151° |
| 2026-04-27 14:49 | 53.00605 | 104.22351 | 16918 ft | 421 kts | 152° |
| 2026-04-27 14:49 | 52.98041 | 104.24653 | 16375 ft | 418 kts | 151° |
| 2026-04-27 14:49 | 52.95501 | 104.26939 | 15856 ft | 415 kts | 151° |
| 2026-04-27 14:49 | 52.92966 | 104.29220 | 15334 ft | 412 kts | 152° |
| 2026-04-27 14:50 | 52.90459 | 104.31471 | 14842 ft | 409 kts | 152° |
| 2026-04-27 14:50 | 52.87964 | 104.33711 | 14348 ft | 407 kts | 152° |
| 2026-04-27 14:50 | 52.85486 | 104.35939 | 13846 ft | 404 kts | 152° |
| 2026-04-27 14:50 | 52.83030 | 104.38151 | 13350 ft | 401 kts | 152° |
| 2026-04-27 14:51 | 52.80584 | 104.40351 | 12872 ft | 398 kts | 152° |
| 2026-04-27 14:51 | 52.78162 | 104.42520 | 12401 ft | 395 kts | 152° |
| 2026-04-27 14:51 | 52.75753 | 104.44664 | 11925 ft | 392 kts | 153° |
| 2026-04-27 14:51 | 52.73249 | 104.46422 | 11456 ft | 389 kts | 161° |
| 2026-04-27 14:52 | 52.70740 | 104.47868 | 11274 ft | 374 kts | 161° |
| 2026-04-27 14:52 | 52.68327 | 104.49257 | 11144 ft | 359 kts | 161° |
| 2026-04-27 14:52 | 52.66016 | 104.50589 | 11021 ft | 344 kts | 161° |
| 2026-04-27 14:52 | 52.63802 | 104.51863 | 10895 ft | 331 kts | 161° |
| 2026-04-27 14:53 | 52.61803 | 104.53014 | 10779 ft | 319 kts | 161° |
| 2026-04-27 14:53 | 52.59743 | 104.54202 | 10571 ft | 310 kts | 161° |
| 2026-04-27 14:53 | 52.57733 | 104.55361 | 10423 ft | 303 kts | 160° |
| 2026-04-27 14:53 | 52.55739 | 104.56507 | 10350 ft | 304 kts | 161° |
| 2026-04-27 14:54 | 52.53742 | 104.57653 | 10231 ft | 304 kts | 160° |
| 2026-04-27 14:54 | 52.51748 | 104.58799 | 10095 ft | 303 kts | 160° |
| 2026-04-27 14:54 | 52.49756 | 104.59943 | 9918 ft | 303 kts | 160° |
| 2026-04-27 14:54 | 52.47759 | 104.61089 | 9470 ft | 303 kts | 160° |
| 2026-04-27 14:55 | 52.45788 | 104.62221 | 9091 ft | 299 kts | 161° |
| 2026-04-27 14:55 | 52.43833 | 104.63341 | 8722 ft | 296 kts | 161° |
| 2026-04-27 14:55 | 52.41902 | 104.64445 | 8355 ft | 292 kts | 161° |
| 2026-04-27 14:55 | 52.39989 | 104.65536 | 7993 ft | 289 kts | 161° |
| 2026-04-27 14:56 | 52.38095 | 104.66615 | 7637 ft | 287 kts | 161° |
| 2026-04-27 14:56 | 52.36223 | 104.67684 | 7279 ft | 283 kts | 161° |
| 2026-04-27 14:56 | 52.34371 | 104.68740 | 6931 ft | 280 kts | 161° |
| 2026-04-27 14:56 | 52.32541 | 104.69784 | 6577 ft | 277 kts | 161° |
| 2026-04-27 14:57 | 52.30740 | 104.70814 | 6219 ft | 273 kts | 161° |
| 2026-04-27 14:57 | 52.28955 | 104.71833 | 5890 ft | 269 kts | 161° |
| 2026-04-27 14:57 | 52.27201 | 104.72829 | 5550 ft | 266 kts | 162° |
| 2026-04-27 14:57 | 52.25458 | 104.73801 | 5166 ft | 264 kts | 165° |
| 2026-04-27 14:58 | 52.23642 | 104.74115 | 4700 ft | 259 kts | 186° |
| 2026-04-27 14:58 | 52.22012 | 104.73336 | 4660 ft | 240 kts | 212° |
| 2026-04-27 14:58 | 52.20798 | 104.71459 | 4565 ft | 242 kts | 232° |
| 2026-04-27 14:58 | 52.20058 | 104.69047 | 4451 ft | 234 kts | 251° |
| 2026-04-27 14:59 | 52.19855 | 104.66443 | 4336 ft | 233 kts | 269° |
| 2026-04-27 14:59 | 52.20183 | 104.63854 | 4317 ft | 232 kts | 288° |
| 2026-04-27 14:59 | 52.20792 | 104.61582 | 4318 ft | 204 kts | 290° |
| 2026-04-27 14:59 | 52.21328 | 104.59600 | 4268 ft | 182 kts | 289° |
| 2026-04-27 15:00 | 52.21822 | 104.57753 | 4068 ft | 174 kts | 289° |
| 2026-04-27 15:00 | 52.22303 | 104.55958 | 3848 ft | 172 kts | 289° |
| 2026-04-27 15:00 | 52.22784 | 104.54164 | 3602 ft | 172 kts | 288° |
| 2026-04-27 15:00 | 52.23257 | 104.52397 | 3361 ft | 173 kts | 288° |
| 2026-04-27 15:01 | 52.23748 | 104.50565 | 3092 ft | 173 kts | 289° |
| 2026-04-27 15:01 | 52.24227 | 104.48777 | 2843 ft | 172 kts | 290° |
| 2026-04-27 15:01 | 52.24701 | 104.47008 | 2567 ft | 168 kts | 291° |
| 2026-04-27 15:01 | 52.25161 | 104.45285 | 2311 ft | 163 kts | 292° |
| 2026-04-27 15:02 | 52.25603 | 104.43635 | 2061 ft | 159 kts | 292° |
| 2026-04-27 15:02 | 52.26046 | 104.41987 | 1805 ft | 158 kts | 292° |
| 2026-04-27 15:02 | 52.26481 | 104.40367 | 1681 ft | 150 kts | 293° |
| 2026-04-27 15:02 | 52.26817 | 104.39041 | 1649 ft | 101 kts | 295° |
| 2026-04-27 15:03 | 52.27050 | 104.38209 | 1638 ft | 69 kts | 292° |
| 2026-04-27 15:03 | 52.27164 | 104.37762 | 1633 ft | 25 kts | 293° |
| 2026-04-27 15:03 | 52.27142 | 104.37548 | 1630 ft | 20 kts | 238° |
| 2026-04-27 15:03 | 52.27113 | 104.37479 | 1629 ft | 0 kts | 234° |
| 2026-04-27 15:04 | 52.27101 | 104.37452 | 1629 ft | 8 kts | 234° |
| 2026-04-27 15:04 | 52.27056 | 104.37347 | 1632 ft | 13 kts | 235° |
| 2026-04-27 15:05 | 52.27005 | 104.37230 | 1629 ft | 12 kts | 234° |
| 2026-04-27 15:05 | 52.26997 | 104.37100 | 1629 ft | 15 kts | 288° |
| 2026-04-27 15:05 | 52.27040 | 104.36906 | 1629 ft | 20 kts | 291° |
| 2026-04-27 15:05 | 52.27086 | 104.36701 | 1632 ft | 19 kts | 289° |
| 2026-04-27 15:06 | 52.27113 | 104.36518 | 1634 ft | 11 kts | 243° |
| 2026-04-27 15:06 | 52.27089 | 104.36492 | 1633 ft | 0 kts | 200° |
| 2026-04-27 15:06 | 52.27068 | 104.36442 | 1632 ft | 10 kts | 262° |
| 2026-04-27 15:07 | 52.27109 | 104.36371 | 1632 ft | 1 kts | 28° |
| 2026-04-27 15:07 | 52.27117 | 104.36376 | 1631 ft | 1 kts | 20° |